Time;durP1;ratioP1;P1;durP2;ratioP2;P2;SDS_P1;SDS_P2;PMS_P1;PMS_P2;Temp;Humidity;BMP_temperature;BMP_pressure;BME280_temperature;BME280_humidity;BME280_pressure;Samples;Min_cycle;Max_cycle;Signal;HPM_P1;HPM_P2
2024/02/06 00:02:53;;;;;;;1999.90;999.90;;;;;;;8.95;100.00;101350.38;10217013;29;20048;-65
2024/02/06 00:07:55;;;;;;;1999.90;999.90;;;;;;;8.88;100.00;101348.00;10217398;29;20052;-65
2024/02/06 00:12:58;;;;;;;1999.90;999.90;;;;;;;8.78;100.00;101343.25;10217237;29;20055;-65
2024/02/06 00:18:00;;;;;;;1999.90;999.90;;;;;;;8.78;100.00;101335.41;10216401;29;20095;-65
2024/02/06 00:23:03;;;;;;;1999.90;999.90;;;;;;;9.07;100.00;101328.94;10216588;29;20083;-66
2024/02/06 00:28:05;;;;;;;1999.90;999.90;;;;;;;8.83;100.00;101325.63;10216655;29;20086;-65
2024/02/06 00:33:10;;;;;;;1999.90;999.90;;;;;;;8.79;100.00;101313.59;10216527;29;20083;-65
2024/02/06 00:38:13;;;;;;;1999.90;999.90;;;;;;;9.09;100.00;101314.06;10215625;29;20099;-66
2024/02/06 00:43:15;;;;;;;1999.90;999.90;;;;;;;9.02;100.00;101308.25;10214991;29;20061;-66
2024/02/06 00:48:17;;;;;;;1999.90;999.90;;;;;;;9.01;100.00;101298.72;10214526;29;20127;-65
2024/02/06 00:53:20;;;;;;;1999.90;999.90;;;;;;;8.91;100.00;101297.41;10214635;29;20051;-65
2024/02/06 00:58:22;;;;;;;1999.90;999.90;;;;;;;9.01;100.00;101300.47;10214936;29;20380;-65
2024/02/06 01:03:25;;;;;;;1999.90;999.90;;;;;;;9.03;100.00;101286.44;10215477;29;20407;-65
2024/02/06 01:08:27;;;;;;;1999.90;999.90;;;;;;;9.03;100.00;101281.22;10214706;29;20388;-66
2024/02/06 01:13:29;;;;;;;1999.90;999.90;;;;;;;9.00;100.00;101276.13;10215223;29;20111;-65
2024/02/06 01:18:32;;;;;;;1999.90;999.90;;;;;;;9.11;100.00;101273.03;10215025;29;20051;-66
2024/02/06 01:23:34;;;;;;;1999.90;999.90;;;;;;;9.02;100.00;101273.44;10214610;29;20082;-65
2024/02/06 01:28:36;;;;;;;1999.90;999.90;;;;;;;9.09;100.00;101280.09;10213678;29;20047;-66
2024/02/06 01:33:39;;;;;;;1999.90;999.90;;;;;;;9.15;100.00;101258.09;10214725;29;20062;-65
2024/02/06 01:38:41;;;;;;;1999.90;999.90;;;;;;;9.22;100.00;101249.06;10212822;29;20064;-65
2024/02/06 01:43:44;;;;;;;1999.90;999.90;;;;;;;9.24;100.00;101245.44;10214585;29;20086;-65
2024/02/06 01:48:46;;;;;;;1999.90;999.90;;;;;;;9.19;100.00;101236.13;10214439;29;20054;-65
2024/02/06 01:53:49;;;;;;;1999.90;999.90;;;;;;;9.23;100.00;101235.94;10212614;29;20491;-65
2024/02/06 01:58:53;;;;;;;1999.90;999.90;;;;;;;9.22;100.00;101229.00;10214016;29;20146;-65
2024/02/06 02:03:55;;;;;;;1999.90;999.90;;;;;;;9.15;100.00;101230.19;10222108;29;20051;-66
2024/02/06 02:08:57;;;;;;;1999.90;999.90;;;;;;;9.28;100.00;101231.34;10220193;29;20534;-65
2024/02/06 02:14:00;;;;;;;1999.90;999.90;;;;;;;9.32;100.00;101226.00;10204909;29;20051;-66
2024/02/06 02:19:02;;;;;;;1999.90;999.90;;;;;;;9.29;100.00;101240.88;10220885;29;20505;-65
2024/02/06 02:24:06;;;;;;;1999.90;999.90;;;;;;;9.34;100.00;101214.53;10219715;29;20062;-65
2024/02/06 02:29:09;;;;;;;1999.90;999.90;;;;;;;9.39;100.00;101223.00;10221198;29;20051;-65
2024/02/06 02:34:12;;;;;;;1999.90;999.90;;;;;;;9.40;100.00;101205.59;10219832;29;20058;-65
2024/02/06 02:39:14;;;;;;;1999.90;999.90;;;;;;;9.39;100.00;101191.66;10219571;29;20055;-65
2024/02/06 02:44:17;;;;;;;1999.90;999.90;;;;;;;9.33;100.00;101193.69;10219628;29;20055;-66
2024/02/06 02:49:19;;;;;;;1999.90;999.90;;;;;;;9.47;100.00;101189.53;10218684;29;20099;-66
2024/02/06 02:54:24;;;;;;;1999.90;999.90;;;;;;;9.31;100.00;101178.09;10219666;29;20423;-66
2024/02/06 02:59:26;;;;;;;1999.90;999.90;;;;;;;9.49;100.00;101172.00;10219337;29;20055;-66
2024/02/06 03:04:28;;;;;;;1999.90;999.90;;;;;;;9.51;100.00;101165.88;10219890;29;20083;-65
2024/02/06 03:09:31;;;;;;;1999.90;999.90;;;;;;;9.66;100.00;101154.69;10219682;29;20054;-66
2024/02/06 03:14:33;;;;;;;1999.90;999.90;;;;;;;9.52;100.00;101157.13;10218590;29;20056;-66
2024/02/06 03:19:36;;;;;;;1999.90;999.90;;;;;;;9.58;100.00;101149.84;10218620;29;20059;-66
2024/02/06 03:24:38;;;;;;;1999.90;999.90;;;;;;;9.59;100.00;101137.59;10218572;29;20091;-65
2024/02/06 03:29:42;;;;;;;1999.90;999.90;;;;;;;9.51;100.00;101127.50;10217793;29;20052;-66
2024/02/06 03:34:44;;;;;;;1999.90;999.90;;;;;;;9.63;100.00;101126.06;10217619;29;20135;-66
2024/02/06 03:39:47;;;;;;;1999.90;999.90;;;;;;;9.47;100.00;101124.19;10218477;29;20048;-65
2024/02/06 03:44:49;;;;;;;1999.90;999.90;;;;;;;9.46;100.00;101119.03;10217787;29;20384;-65
2024/02/06 03:49:52;;;;;;;1999.90;999.90;;;;;;;9.54;100.00;101116.91;10218184;29;20052;-66
2024/02/06 03:54:54;;;;;;;1999.90;999.90;;;;;;;9.52;100.00;101123.13;10217994;29;20086;-66
2024/02/06 03:59:56;;;;;;;1999.90;999.90;;;;;;;9.55;100.00;101113.38;10217735;29;20047;-66
2024/02/06 04:04:59;;;;;;;1999.90;999.90;;;;;;;9.43;100.00;101112.19;10217525;29;20052;-66
2024/02/06 04:10:01;;;;;;;1999.90;999.90;;;;;;;9.39;100.00;101110.63;10217453;29;20082;-66
2024/02/06 04:15:06;;;;;;;1999.90;999.90;;;;;;;9.42;100.00;101110.50;10217237;29;20052;-65
2024/02/06 04:20:09;;;;;;;1999.90;999.90;;;;;;;9.66;100.00;101105.84;10215841;29;20106;-65
2024/02/06 04:25:12;;;;;;;1999.90;999.90;;;;;;;9.76;100.00;101108.03;10216352;29;20144;-65
2024/02/06 04:30:16;;;;;;;1999.90;999.90;;;;;;;9.64;100.00;101099.00;10216639;29;20077;-66
2024/02/06 04:35:19;;;;;;;1999.90;999.90;;;;;;;9.72;100.00;101103.88;10216498;29;20048;-66
2024/02/06 04:40:22;;;;;;;1999.90;999.90;;;;;;;9.73;100.00;101079.41;10215071;29;20127;-66
2024/02/06 04:45:25;;;;;;;1999.90;999.90;;;;;;;9.81;100.00;101085.94;10216118;29;20055;-66
2024/02/06 04:50:28;;;;;;;1999.90;999.90;;;;;;;9.81;100.00;101079.88;10215969;29;20051;-66
2024/02/06 04:55:31;;;;;;;1999.90;999.90;;;;;;;9.72;100.00;101081.19;10215780;29;20056;-65
2024/02/06 05:00:33;;;;;;;1999.90;999.90;;;;;;;9.75;100.00;101073.19;10214943;29;20483;-65
2024/02/06 05:05:36;;;;;;;1999.90;999.90;;;;;;;9.70;100.00;101064.72;10215428;29;20134;-65
2024/02/06 05:10:39;;;;;;;1999.90;999.90;;;;;;;9.74;100.00;101081.13;10215316;29;20090;-66
2024/02/06 05:15:42;;;;;;;1999.90;999.90;;;;;;;9.71;100.00;101070.81;10215198;29;20134;-66
2024/02/06 05:20:44;;;;;;;1999.90;999.90;;;;;;;9.61;100.00;101055.56;10214351;29;20505;-65
2024/02/06 05:25:46;;;;;;;1999.90;999.90;;;;;;;9.73;100.00;101056.72;10214433;29;20059;-66
2024/02/06 05:30:49;;;;;;;1999.90;999.90;;;;;;;9.67;100.00;101049.19;10213067;29;20051;-66
2024/02/06 05:35:51;;;;;;;1999.90;999.90;;;;;;;9.57;100.00;101053.19;10213620;29;20589;-66
2024/02/06 05:40:53;;;;;;;1999.90;999.90;;;;;;;9.53;100.00;101049.88;10213382;29;20079;-66
2024/02/06 05:45:59;;;;;;;1999.90;999.90;;;;;;;9.38;100.00;101048.84;10214564;29;20055;-66
2024/02/06 05:51:04;;;;;;;1999.90;999.90;;;;;;;9.58;100.00;101050.50;10213854;29;20044;-66
2024/02/06 05:56:07;;;;;;;1999.90;999.90;;;;;;;9.38;100.00;101043.63;10213826;29;20525;-66
2024/02/06 06:01:10;;;;;;;1999.90;999.90;;;;;;;9.46;100.00;101035.41;10213642;29;20575;-65
2024/02/06 06:06:12;;;;;;;1999.90;999.90;;;;;;;9.25;100.00;101042.53;10212429;29;20063;-66
2024/02/06 06:11:17;;;;;;;1999.90;999.90;;;;;;;9.07;100.00;101046.84;10213499;29;20380;-65
2024/02/06 06:16:19;;;;;;;1999.90;999.90;;;;;;;9.31;100.00;101031.75;10213416;29;20501;-65
2024/02/06 06:21:21;;;;;;;1999.90;999.90;;;;;;;9.23;100.00;101036.50;10213875;29;20131;-66
2024/02/06 06:26:25;;;;;;;1999.90;999.90;;;;;;;9.21;100.00;101026.16;10211917;29;20059;-65
2024/02/06 06:31:27;;;;;;;1999.90;999.90;;;;;;;9.19;100.00;101024.53;10213117;29;20511;-65
2024/02/06 06:36:30;;;;;;;1999.90;999.90;;;;;;;9.30;100.00;101014.41;10213675;29;20059;-65
2024/02/06 06:41:33;;;;;;;1999.90;999.90;;;;;;;9.64;100.00;101016.19;10212850;29;20052;-65
2024/02/06 06:46:35;;;;;;;1999.90;999.90;;;;;;;9.49;100.00;101015.19;10214730;29;20077;-65
2024/02/06 06:51:37;;;;;;;1999.90;999.90;;;;;;;9.35;100.00;100998.50;10219787;29;20403;-66
2024/02/06 06:56:40;;;;;;;1999.90;999.90;;;;;;;9.32;100.00;100998.66;10219256;29;20061;-66
2024/02/06 07:01:42;;;;;;;1999.90;999.90;;;;;;;9.44;100.00;100998.88;10219978;29;20144;-65
2024/02/06 07:06:45;;;;;;;1999.90;999.90;;;;;;;9.44;100.00;100990.22;10219838;29;20059;-65
2024/02/06 07:11:48;;;;;;;1999.90;999.90;;;;;;;9.53;100.00;100992.38;10219627;29;20058;-65
2024/02/06 07:16:51;;;;;;;1999.90;999.90;;;;;;;9.41;100.00;100987.75;10218322;29;20138;-65
2024/02/06 07:21:55;;;;;;;1999.90;999.90;;;;;;;9.36;100.00;100987.97;10218599;29;20480;-65
2024/02/06 07:26:59;;;;;;;1999.90;999.90;;;;;;;9.47;100.00;100984.84;10217357;29;20139;-66
2024/02/06 07:32:01;;;;;;;1999.90;999.90;;;;;;;9.54;100.00;100977.53;10218913;29;20051;-65
2024/02/06 07:37:03;;;;;;;1999.90;999.90;;;;;;;9.47;100.00;100988.28;10218755;29;20051;-65
2024/02/06 07:42:07;;;;;;;1999.90;999.90;;;;;;;9.29;100.00;100989.19;10217863;29;20546;-66
2024/02/06 07:47:10;;;;;;;1999.90;999.90;;;;;;;9.31;100.00;100987.34;10218507;29;20058;-65
2024/02/06 07:52:12;;;;;;;1999.90;999.90;;;;;;;9.37;100.00;100988.81;10218198;29;20051;-65
2024/02/06 07:57:15;;;;;;;1999.90;999.90;;;;;;;9.32;100.00;100998.66;10216346;29;20134;-66
2024/02/06 08:02:18;;;;;;;1999.90;999.90;;;;;;;9.54;100.00;100993.22;10217844;29;20055;-65
2024/02/06 08:07:20;;;;;;;1999.90;999.90;;;;;;;9.35;100.00;100988.91;10217813;29;20056;-65
2024/02/06 08:12:23;;;;;;;1999.90;999.90;;;;;;;9.38;100.00;100982.66;10217390;29;20087;-65
2024/02/06 08:17:26;;;;;;;1999.90;999.90;;;;;;;9.69;100.00;100981.16;10217110;29;20051;-66
2024/02/06 08:22:30;;;;;;;1999.90;999.90;;;;;;;9.51;100.00;100965.44;10217033;29;20060;-65
2024/02/06 08:27:34;;;;;;;1999.90;999.90;;;;;;;9.77;100.00;100966.75;10216024;29;20068;-65
2024/02/06 08:32:36;;;;;;;1999.90;999.90;;;;;;;9.85;100.00;100953.25;10214937;29;20415;-66
2024/02/06 08:37:39;;;;;;;1999.90;999.90;;;;;;;9.75;100.00;100963.38;10216374;29;20054;-66
2024/02/06 08:42:41;;;;;;;1999.90;999.90;;;;;;;9.66;100.00;100950.75;10214538;29;20055;-66
2024/02/06 08:47:44;;;;;;;1999.90;999.90;;;;;;;9.73;100.00;100964.38;10215457;29;20107;-66
2024/02/06 08:52:46;;;;;;;1999.90;999.90;;;;;;;9.60;100.00;100949.31;10214871;29;20086;-65
2024/02/06 08:57:49;;;;;;;1999.90;999.90;;;;;;;9.60;100.00;100946.69;10212360;29;20491;-66
2024/02/06 09:02:53;;;;;;;1999.90;999.90;;;;;;;9.70;100.00;100947.09;10211818;29;20392;-65
2024/02/06 09:07:56;;;;;;;1999.90;999.90;;;;;;;9.71;100.00;100942.69;10212875;29;20130;-66
2024/02/06 09:12:59;;;;;;;1999.90;999.90;;;;;;;9.73;100.00;100940.84;10213921;29;20055;-66
2024/02/06 09:18:03;;;;;;;1999.90;999.90;;;;;;;9.67;100.00;100944.63;10213337;29;20522;-66
2024/02/06 09:23:06;;;;;;;1999.90;999.90;;;;;;;9.82;100.00;100935.97;10215091;29;20051;-66
2024/02/06 09:28:08;;;;;;;1999.90;999.90;;;;;;;9.80;100.00;100943.06;10214182;29;20078;-66
2024/02/06 09:33:11;;;;;;;1999.90;999.90;;;;;;;9.81;100.00;100915.13;10214234;29;20459;-66
2024/02/06 09:38:13;;;;;;;1999.90;999.90;;;;;;;10.01;100.00;100917.53;10214136;29;20392;-66
2024/02/06 09:43:16;;;;;;;1999.90;999.90;;;;;;;9.99;100.00;100911.56;10214038;29;20126;-66
2024/02/06 09:48:20;;;;;;;1999.90;999.90;;;;;;;10.01;100.00;100894.00;10213411;29;20090;-65
2024/02/06 09:53:32;;;;;;;1999.90;999.90;;;;;;;10.01;100.00;100885.31;10213059;29;20443;-66
2024/02/06 09:58:34;;;;;;;1999.90;999.90;;;;;;;9.96;100.00;100882.09;10213222;29;20054;-66
2024/02/06 10:03:40;;;;;;;1999.90;999.90;;;;;;;10.05;100.00;100886.81;10214343;29;20051;-65
2024/02/06 10:08:44;;;;;;;1999.90;999.90;;;;;;;10.12;100.00;100887.34;10197450;29;20055;-65
2024/02/06 10:13:46;;;;;;;1999.90;999.90;;;;;;;10.21;100.00;100889.47;10212330;29;20073;-65
2024/02/06 10:18:53;;;;;;;1999.90;999.90;;;;;;;10.31;100.00;100884.59;10213916;29;20048;-65
2024/02/06 10:24:04;;;;;;;1999.90;999.90;;;;;;;10.35;100.00;100873.88;10220469;29;20056;-65
2024/02/06 10:29:08;;;;;;;;;;;;;;;10.49;100.00;100867.03;10220031;29;20052;-65
2024/02/06 10:34:12;;;;;;;1999.90;999.90;;;;;;;10.36;100.00;100857.25;10221142;29;19923;-66
2024/02/06 10:39:15;;;;;;;1999.90;999.90;;;;;;;10.57;100.00;100842.13;10232962;23;20055;-67
2024/02/06 10:44:21;;;;;;;1999.90;999.90;;;;;;;10.83;100.00;100857.28;10219040;29;20051;-67
2024/02/06 10:49:23;;;;;;;1999.90;999.90;;;;;;;11.12;100.00;100852.97;10220717;29;20127;-67
2024/02/06 10:54:26;;;;;;;1999.90;999.90;;;;;;;11.29;100.00;100850.19;10219335;29;20079;-67
2024/02/06 10:59:33;;;;;;;1999.90;999.90;;;;;;;11.14;100.00;100851.09;10220149;29;20052;-67
2024/02/06 11:04:36;;;;;;;1999.90;999.90;;;;;;;11.03;100.00;100846.50;10218950;29;20086;-67
2024/02/06 11:09:40;;;;;;;1999.90;999.90;;;;;;;10.96;100.00;100859.09;10218903;29;20134;-67
2024/02/06 11:14:44;;;;;;;1999.90;999.90;;;;;;;11.31;100.00;100840.47;10202136;29;20389;-67
2024/02/06 11:20:00;;;;;;;1999.90;999.90;;;;;;;11.21;100.00;100830.59;10217562;29;20501;-67
2024/02/06 11:25:03;;;;;;;1999.90;999.90;;;;;;;11.05;100.00;100844.63;10217633;29;20487;-67
2024/02/06 11:30:07;;;;;;;1999.90;999.90;;;;;;;11.01;100.00;100840.50;10218499;29;20604;-67
2024/02/06 11:35:09;;;;;;;1999.90;999.90;;;;;;;11.08;100.00;100809.56;10218159;29;20051;-67
2024/02/06 11:40:13;;;;;;;1999.90;999.90;;;;;;;10.88;100.00;100801.06;10218106;29;20103;-67
2024/02/06 11:45:19;;;;;;;1999.90;999.90;;;;;;;10.82;100.00;100795.34;10217429;29;20107;-67
2024/02/06 11:50:34;;;;;;;1999.90;999.90;;;;;;;10.76;100.00;100786.94;10218358;29;20139;-66
2024/02/06 11:55:39;;;;;;;1999.90;999.90;;;;;;;10.63;100.00;100779.88;10217137;29;20138;-66
2024/02/06 12:00:41;;;;;;;1999.90;999.90;;;;;;;10.78;100.00;100798.16;10216110;29;20403;-66
2024/02/06 12:05:44;;;;;;;1999.90;999.90;;;;;;;10.78;100.00;100785.06;10217751;29;20056;-67
2024/02/06 12:10:48;;;;;;;1999.90;999.90;;;;;;;10.88;100.00;100792.38;10217083;29;20388;-67
2024/02/06 12:15:51;;;;;;;1999.90;999.90;;;;;;;10.64;100.00;100792.88;10216786;29;20051;-67
2024/02/06 12:20:53;;;;;;;1999.90;999.90;;;;;;;10.64;100.00;100778.94;10216464;29;20407;-67
2024/02/06 12:25:56;;;;;;;1999.90;999.90;;;;;;;10.65;100.00;100762.31;10215202;29;20479;-68
2024/02/06 12:31:00;;;;;;;1999.90;999.90;;;;;;;10.63;100.00;100766.78;10215700;29;20059;-68
2024/02/06 12:36:03;;;;;;;1999.90;999.90;;;;;;;10.58;100.00;100749.56;10214728;29;20487;-68
2024/02/06 12:41:06;;;;;;;1999.90;999.90;;;;;;;10.76;100.00;100741.56;10215367;29;20056;-67
2024/02/06 12:46:09;;;;;;;1999.90;999.90;;;;;;;10.66;100.00;100732.53;10214352;29;20135;-68
2024/02/06 12:51:11;;;;;;;1999.90;999.90;;;;;;;10.77;100.00;100720.50;10214138;29;20047;-67
2024/02/06 12:56:14;;;;;;;1999.90;999.90;;;;;;;10.95;100.00;100715.94;10214790;29;20126;-68
2024/02/06 13:01:22;;;;;;;1999.90;999.90;;;;;;;11.00;100.00;100718.31;10215063;29;20131;-67
2024/02/06 13:06:32;;;;;;;1999.90;999.90;;;;;;;10.94;100.00;100679.38;10215598;29;20107;-68
2024/02/06 13:11:35;;;;;;;1999.90;999.90;;;;;;;10.88;100.00;100692.84;10214249;29;20105;-72
2024/02/06 13:16:38;;;;;;;1999.90;999.90;;;;;;;11.22;100.00;100673.28;10213002;29;20054;-72
2024/02/06 13:21:41;;;;;;;1999.90;999.90;;;;;;;11.30;100.00;100654.47;10214287;29;20058;-71
2024/02/06 13:26:45;;;;;;;1999.90;999.90;;;;;;;11.57;100.00;100656.28;10214736;29;20052;-72
2024/02/06 13:31:47;;;;;;;1999.90;999.90;;;;;;;11.42;100.00;100658.09;10197806;29;20044;-73
2024/02/06 13:36:50;;;;;;;1999.90;999.90;;;;;;;11.42;100.00;100645.00;10213576;29;20190;-71
2024/02/06 13:41:52;;;;;;;1999.90;999.90;;;;;;;11.30;100.00;100660.53;10215425;29;20058;-73
2024/02/06 13:46:54;;;;;;;1999.90;999.90;;;;;;;11.15;100.00;100664.97;10213285;29;20052;-68
2024/02/06 13:51:57;;;;;;;1999.90;999.90;;;;;;;11.21;100.00;100650.63;10214724;29;20047;-69
2024/02/06 13:56:59;;;;;;;1999.90;999.90;;;;;;;11.31;100.00;100650.88;10201996;29;20090;-67
2024/02/06 14:02:02;;;;;;;1999.90;999.90;;;;;;;11.29;100.00;100661.47;10222006;29;20083;-67
2024/02/06 14:07:05;;;;;;;1999.90;999.90;;;;;;;11.38;100.00;100651.34;10221588;29;20055;-67
2024/02/06 14:12:08;;;;;;;1999.90;999.90;;;;;;;11.51;98.68;100639.16;10220891;29;20051;-67
2024/02/06 14:17:10;;;;;;;1999.90;999.90;;;;;;;11.69;97.99;100661.56;10221920;29;20066;-67
2024/02/06 14:22:12;;;;;;;1999.90;999.90;;;;;;;11.64;95.88;100650.53;10221595;29;20051;-67
2024/02/06 14:27:15;;;;;;;1999.90;999.90;;;;;;;11.71;93.71;100638.69;10219723;29;20507;-67
2024/02/06 14:32:17;;;;;;;1999.90;999.90;;;;;;;11.69;94.73;100639.75;10220125;29;20071;-67
2024/02/06 14:37:20;;;;;;;1999.90;999.90;;;;;;;11.72;93.92;100652.69;10220820;29;20087;-67
2024/02/06 14:42:23;;;;;;;1999.90;999.90;;;;;;;11.68;92.37;100644.16;10220838;29;20062;-67
2024/02/06 14:47:25;;;;;;;1999.90;999.90;;;;;;;11.83;90.75;100626.56;10220125;29;20571;-67
2024/02/06 14:52:27;;;;;;;1999.90;999.90;;;;;;;11.86;90.42;100612.44;10220561;29;20047;-67
2024/02/06 14:57:31;;;;;;;1999.90;999.90;;;;;;;11.62;92.08;100599.16;10220418;29;20047;-67
2024/02/06 15:02:33;;;;;;;1999.90;999.90;;;;;;;11.73;90.57;100603.69;10220110;29;20079;-67
2024/02/06 15:07:40;;;;;;;1999.90;999.90;;;;;;;11.99;89.20;100620.38;10217076;29;20078;-67
2024/02/06 15:12:42;;;;;;;1999.90;999.90;;;;;;;11.73;90.17;100596.63;10219276;29;20419;-67
2024/02/06 15:17:45;;;;;;;1999.90;999.90;;;;;;;11.63;90.28;100600.81;10219738;29;20136;-67
2024/02/06 15:22:47;;;;;;;1999.90;999.90;;;;;;;11.73;89.00;100604.50;10219361;29;20047;-67
2024/02/06 15:27:52;;;;;;;1999.90;999.90;;;;;;;11.70;90.56;100599.47;10219323;29;20084;-67
2024/02/06 15:32:55;;;;;;;1999.90;999.90;;;;;;;11.65;90.62;100591.91;10218794;29;20051;-67
2024/02/06 15:37:58;;;;;;;1999.90;999.90;;;;;;;11.57;92.17;100586.31;10218069;29;20518;-67
2024/02/06 15:43:00;;;;;;;1999.90;999.90;;;;;;;11.60;91.78;100594.00;10218023;29;20454;-67
2024/02/06 15:48:03;;;;;;;1999.90;999.90;;;;;;;11.61;91.16;100587.78;10218534;29;20134;-67
2024/02/06 15:53:05;;;;;;;1999.90;999.90;;;;;;;11.50;91.45;100580.63;10218257;29;20052;-67
2024/02/06 15:58:10;;;;;;;1999.90;999.90;;;;;;;11.62;91.34;100552.78;10200702;29;20048;-67
2024/02/06 16:03:12;;;;;;;1999.90;999.90;;;;;;;11.54;91.50;100573.41;10216090;29;20060;-67
2024/02/06 16:08:15;;;;;;;1999.90;999.90;;;;;;;11.58;91.41;100574.88;10217066;29;20562;-67
2024/02/06 16:13:18;;;;;;;1999.90;999.90;;;;;;;11.57;90.84;100585.50;10215700;29;20126;-67
2024/02/06 16:18:24;;;;;;;1999.90;999.90;;;;;;;11.46;91.84;100573.91;10216332;29;20484;-67
2024/02/06 16:23:27;;;;;;;1999.90;999.90;;;;;;;11.65;91.64;100568.31;10216409;29;20463;-67
2024/02/06 16:28:29;;;;;;;1999.90;999.90;;;;;;;11.66;90.90;100566.53;10216921;29;20138;-67
2024/02/06 16:33:31;;;;;;;1999.90;999.90;;;;;;;11.50;92.23;100578.00;10216807;29;20059;-67
2024/02/06 16:38:34;;;;;;;1999.90;999.90;;;;;;;11.47;92.98;100561.66;10215541;29;20063;-67
2024/02/06 16:43:36;;;;;;;1999.90;999.90;;;;;;;11.59;90.96;100558.22;10215215;29;20130;-67
2024/02/06 16:48:39;;;;;;;1999.90;999.90;;;;;;;11.53;91.55;100562.09;10215639;29;20055;-67
2024/02/06 16:53:42;;;;;;;1999.90;999.90;;;;;;;11.41;92.04;100555.00;10215454;29;20062;-67
2024/02/06 16:58:44;;;;;;;1999.90;999.90;;;;;;;11.46;93.34;100550.31;10215882;29;20058;-67
2024/02/06 17:03:47;;;;;;;1999.90;999.90;;;;;;;11.42;93.81;100553.25;10214016;29;20070;-67
2024/02/06 17:08:50;;;;;;;1999.90;999.90;;;;;;;11.58;93.18;100550.44;10213798;29;20123;-67
2024/02/06 17:13:53;;;;;;;1999.90;999.90;;;;;;;11.63;93.47;100553.59;10214306;29;20138;-67
2024/02/06 17:18:55;;;;;;;1999.90;999.90;;;;;;;11.29;95.96;100545.31;10215204;29;20059;-67
2024/02/06 17:23:57;;;;;;;1999.90;999.90;;;;;;;11.28;95.73;100534.00;10215144;29;20136;-67
2024/02/06 17:29:00;;;;;;;1999.90;999.90;;;;;;;11.37;94.30;100536.97;10214024;29;20065;-67
2024/02/06 17:34:03;;;;;;;1999.90;999.90;;;;;;;11.45;93.15;100526.84;10214155;29;20434;-67
2024/02/06 17:39:05;;;;;;;1999.90;999.90;;;;;;;11.56;91.32;100528.75;10213908;29;20482;-67
2024/02/06 17:44:08;;;;;;;1999.90;999.90;;;;;;;11.46;92.17;100520.63;10214812;29;20055;-67
2024/02/06 17:49:10;;;;;;;1999.90;999.90;;;;;;;11.36;93.41;100504.66;10214626;29;20052;-67
2024/02/06 17:54:13;;;;;;;1999.90;999.90;;;;;;;11.45;93.09;100513.72;10213956;29;20087;-67
2024/02/06 17:59:17;;;;;;;1999.90;999.90;;;;;;;11.47;92.26;100512.66;10214344;29;20056;-67
2024/02/06 18:04:19;;;;;;;1999.90;999.90;;;;;;;11.48;93.03;100514.38;10213745;29;20149;-67
2024/02/06 18:09:22;;;;;;;1999.90;999.90;;;;;;;11.46;92.96;100489.19;10213648;29;20043;-67
2024/02/06 18:14:24;;;;;;;1999.90;999.90;;;;;;;11.45;94.22;100498.84;10214195;29;20130;-67
2024/02/06 18:19:27;;;;;;;1999.90;999.90;;;;;;;11.28;98.16;100489.44;10212832;29;20048;-67
2024/02/06 18:24:29;;;;;;;1999.90;999.90;;;;;;;11.38;98.92;100478.34;10214024;29;20135;-67
2024/02/06 18:29:32;;;;;;;1999.90;999.90;;;;;;;11.24;100.00;100469.59;10213319;29;20403;-67
2024/02/06 18:34:36;;;;;;;1999.90;999.90;;;;;;;11.25;100.00;100457.38;10213365;29;20439;-67
2024/02/06 18:39:39;;;;;;;1999.90;999.90;;;;;;;11.22;100.00;100441.84;10212860;29;20443;-67
2024/02/06 18:44:42;;;;;;;1999.90;999.90;;;;;;;11.48;99.85;100442.72;10219436;29;20055;-67
2024/02/06 18:49:44;;;;;;;1999.90;999.90;;;;;;;11.34;99.50;100433.16;10218927;29;20047;-67
2024/02/06 18:54:50;;;;;;;1999.90;999.90;;;;;;;11.48;98.90;100437.47;10219388;29;20059;-67
2024/02/06 18:59:53;;;;;;;1999.90;999.90;;;;;;;11.48;98.44;100414.75;10220386;29;20111;-67
2024/02/06 19:04:55;;;;;;;1999.90;999.90;;;;;;;11.49;97.90;100421.66;10220197;29;20071;-67
2024/02/06 19:09:58;;;;;;;1999.90;999.90;;;;;;;11.54;97.74;100408.22;10219327;29;20075;-67
2024/02/06 19:15:01;;;;;;;1999.90;999.90;;;;;;;11.62;96.03;100405.09;10219820;29;20054;-67
2024/02/06 19:20:06;;;;;;;1999.90;999.90;;;;;;;11.56;97.20;100408.97;10218889;29;20376;-67
2024/02/06 19:25:08;;;;;;;1999.90;999.90;;;;;;;11.41;100.00;100408.22;10218268;29;20107;-67
2024/02/06 19:30:11;;;;;;;1999.90;999.90;;;;;;;11.43;100.00;100418.59;10218647;29;20555;-67
2024/02/06 19:35:14;;;;;;;1999.90;999.90;;;;;;;11.48;100.00;100399.00;10219045;29;20051;-67
2024/02/06 19:40:16;;;;;;;1999.90;999.90;;;;;;;11.41;100.00;100384.63;10218493;29;20059;-67
2024/02/06 19:45:19;;;;;;;1999.90;999.90;;;;;;;11.32;100.00;100395.72;10218707;29;20051;-67
2024/02/06 19:50:21;;;;;;;1999.90;999.90;;;;;;;11.28;100.00;100396.88;10218435;29;20122;-67
2024/02/06 19:55:24;;;;;;;1999.90;999.90;;;;;;;11.18;100.00;100411.53;10217657;29;20114;-67
2024/02/06 20:00:26;;;;;;;1999.90;999.90;;;;;;;11.09;100.00;100403.31;10217377;29;20103;-67
2024/02/06 20:05:29;;;;;;;1999.90;999.90;;;;;;;11.00;100.00;100397.88;10217271;29;20411;-67
2024/02/06 20:10:31;;;;;;;1999.90;999.90;;;;;;;10.97;100.00;100391.03;10215975;29;20134;-67
2024/02/06 20:15:34;;;;;;;1999.90;999.90;;;;;;;10.86;100.00;100402.22;10216380;29;20393;-67
2024/02/06 20:20:36;;;;;;;1999.90;999.90;;;;;;;10.84;100.00;100391.00;10216920;29;20065;-67
2024/02/06 20:25:38;;;;;;;1999.90;999.90;;;;;;;10.95;100.00;100383.28;10216514;29;20134;-67
2024/02/06 20:30:41;;;;;;;1999.90;999.90;;;;;;;10.76;100.00;100373.19;10216898;29;20048;-67
2024/02/06 20:35:43;;;;;;;1999.90;999.90;;;;;;;10.70;100.00;100383.22;10216127;29;20503;-67
2024/02/06 20:40:46;;;;;;;1999.90;999.90;;;;;;;10.80;100.00;100373.81;10215626;29;20056;-68
2024/02/06 20:45:48;;;;;;;1999.90;999.90;;;;;;;10.64;100.00;100373.97;10216325;29;20055;-66
2024/02/06 20:50:50;;;;;;;1999.90;999.90;;;;;;;10.62;100.00;100360.13;10215121;29;20048;-67
2024/02/06 20:55:53;;;;;;;1999.90;999.90;;;;;;;10.73;100.00;100351.59;10215421;29;20135;-67
2024/02/06 21:00:56;;;;;;;1999.90;999.90;;;;;;;10.50;100.00;100353.91;10215219;29;20558;-67
2024/02/06 21:05:58;;;;;;;1999.90;999.90;;;;;;;10.43;100.00;100352.63;10214866;29;20055;-67
2024/02/06 21:11:00;;;;;;;1999.90;999.90;;;;;;;10.29;100.00;100363.09;10214894;29;20486;-67
2024/02/06 21:16:03;;;;;;;1999.90;999.90;;;;;;;10.27;100.00;100355.34;10213666;29;20062;-67
2024/02/06 21:21:05;;;;;;;1999.90;999.90;;;;;;;10.25;100.00;100345.91;10213358;29;20086;-67
2024/02/06 21:26:08;;;;;;;1999.90;999.90;;;;;;;10.22;100.00;100367.84;10215108;29;20051;-67
2024/02/06 21:31:10;;;;;;;1999.90;999.90;;;;;;;10.23;100.00;100354.69;10215001;29;20091;-67
2024/02/06 21:36:13;;;;;;;1999.90;999.90;;;;;;;10.27;100.00;100331.81;10214235;29;20060;-67
2024/02/06 21:41:16;;;;;;;1999.90;999.90;;;;;;;10.28;100.00;100336.09;10213053;29;20052;-67
2024/02/06 21:46:18;;;;;;;1999.90;999.90;;;;;;;10.26;100.00;100322.28;10214037;29;20381;-67
2024/02/06 21:51:20;;;;;;;1999.90;999.90;;;;;;;10.26;100.00;100335.34;10214613;29;20059;-67